createdAt,value
2017-05-26T00:00:18.399Z,11.03
2017-05-26T00:01:18.695Z,10.89
2017-05-26T00:02:18.692Z,11.03
2017-05-26T00:03:18.074Z,11
2017-05-26T00:04:18.673Z,11.03
2017-05-26T00:05:18.669Z,11.06
2017-05-26T00:06:18.363Z,11.14
2017-05-26T00:07:18.654Z,11.07
2017-05-26T00:08:18.647Z,11.15
2017-05-26T00:09:18.641Z,11.07
2017-05-26T00:10:18.633Z,11.1
2017-05-26T00:11:18.322Z,11.06
2017-05-26T00:12:18.624Z,11.11
2017-05-26T00:13:18.614Z,11.14
2017-05-26T00:14:18.605Z,11.18
2017-05-26T00:15:18.597Z,11.22
2017-05-26T00:16:18.590Z,11.17
2017-05-26T00:17:18.583Z,11.32
2017-05-26T00:18:18.273Z,11.21
2017-05-26T00:19:18.571Z,11.15
2017-05-26T00:20:18.564Z,11.14
2017-05-26T00:21:18.553Z,11.32
2017-05-26T00:22:18.547Z,11.22
2017-05-26T00:23:17.934Z,11.24
2017-05-26T00:24:18.537Z,11.18
2017-05-26T00:25:18.223Z,11.28
2017-05-26T00:26:18.219Z,11.14
2017-05-26T00:27:18.210Z,11.15
2017-05-26T00:28:18.203Z,11.15
2017-05-26T00:29:18.505Z,11.15
2017-05-26T00:30:18.492Z,11.19
2017-05-26T00:31:18.187Z,11.28
2017-05-26T00:32:18.478Z,11.22
2017-05-26T00:33:18.473Z,11.25
2017-05-26T00:34:17.859Z,11.32
2017-05-26T00:35:18.462Z,11.29
2017-05-26T00:36:18.450Z,11.28
2017-05-26T00:37:18.442Z,11.39
2017-05-26T00:38:18.438Z,11.46
2017-05-26T00:39:18.431Z,11.35
2017-05-26T00:40:18.425Z,11.58
2017-05-26T00:41:18.416Z,11.51
2017-05-26T00:42:18.409Z,11.49
2017-05-26T00:43:18.402Z,11.61
2017-05-26T00:44:18.398Z,11.7
2017-05-26T00:45:18.387Z,11.69
2017-05-26T00:46:18.081Z,11.78
2017-05-26T00:47:18.377Z,11.82
2017-05-26T00:48:18.370Z,11.83
2017-05-26T00:49:18.365Z,11.99
2017-05-26T00:50:18.354Z,11.95
2017-05-26T00:51:18.045Z,11.99
2017-05-26T00:52:18.346Z,12.01
2017-05-26T00:53:18.336Z,12.04
2017-05-26T00:54:18.023Z,12.02
2017-05-26T00:55:18.319Z,12.05
2017-05-26T00:56:18.313Z,12.04
2017-05-26T00:57:18.309Z,12.05
2017-05-26T00:58:18.300Z,12.02
2017-05-26T00:59:18.299Z,11.99
2017-05-26T01:00:18.287Z,12.14
2017-05-26T01:01:18.279Z,11.99
2017-05-26T01:02:17.970Z,12.12
2017-05-26T01:03:18.270Z,12.02
2017-05-26T01:04:18.262Z,12.17
2017-05-26T01:05:18.260Z,12.17
2017-05-26T01:06:18.249Z,12.12
2017-05-26T01:07:18.245Z,12.13
2017-05-26T01:08:18.239Z,12.17
2017-05-26T01:09:18.230Z,12.05
2017-05-26T01:10:18.223Z,12.02
2017-05-26T01:11:18.216Z,12.04
2017-05-26T01:12:18.213Z,12.04
2017-05-26T01:13:18.210Z,12.05
2017-05-26T01:14:18.197Z,12.07
2017-05-26T01:15:17.889Z,12.09
2017-05-26T01:16:17.883Z,11.99
2017-05-26T01:17:18.178Z,12.02
2017-05-26T01:18:17.868Z,12.02
2017-05-26T01:19:18.167Z,12.07
2017-05-26T01:20:18.160Z,11.98
2017-05-26T01:21:18.154Z,12.13
2017-05-26T01:22:18.146Z,12.04
2017-05-26T01:23:18.142Z,11.96
2017-05-26T01:24:18.139Z,12.09
2017-05-26T01:25:18.130Z,12.12
2017-05-26T01:26:18.123Z,12.1
2017-05-26T01:27:18.119Z,12.13
2017-05-26T01:28:18.117Z,12.12
2017-05-26T01:29:18.105Z,12.14
2017-05-26T01:30:18.095Z,12.16
2017-05-26T01:31:18.088Z,12.13
2017-05-26T01:32:17.780Z,12.27
2017-05-26T01:33:18.077Z,12.23
2017-05-26T01:34:18.066Z,12.24
2017-05-26T01:35:18.061Z,12.24
2017-05-26T01:36:18.056Z,12.29
2017-05-26T01:37:18.049Z,12.2
2017-05-26T01:38:18.046Z,12.24
2017-05-26T01:39:18.041Z,12.21
2017-05-26T01:40:18.032Z,12.17
2017-05-26T01:41:18.033Z,12.19
2017-05-26T01:42:18.021Z,12.17
2017-05-26T01:43:18.012Z,12.17
2017-05-26T01:44:18.003Z,12.1
2017-05-26T01:45:17.997Z,12.17
2017-05-26T01:46:17.992Z,12.02
2017-05-26T01:47:17.986Z,12.07
2017-05-26T01:48:17.985Z,11.99
2017-05-26T01:49:17.974Z,12.01
2017-05-26T01:50:17.967Z,12.01
2017-05-26T01:51:17.960Z,12.04
2017-05-26T01:52:17.954Z,12.04
2017-05-26T01:53:17.948Z,11.96
2017-05-26T01:54:17.943Z,11.96
2017-05-26T01:55:17.934Z,12.02
2017-05-26T01:56:17.928Z,12.05
2017-05-26T01:57:17.924Z,11.95
2017-05-26T01:58:17.985Z,11.82
2017-05-26T01:59:17.913Z,11.9
2017-05-26T02:00:17.903Z,11.91
2017-05-26T02:01:17.898Z,11.85
2017-05-26T02:02:17.893Z,11.86
2017-05-26T02:03:17.888Z,11.85
2017-05-26T02:04:17.576Z,11.8
2017-05-26T02:05:17.574Z,11.85
2017-05-26T02:06:17.563Z,11.79
2017-05-26T02:07:17.556Z,11.75
2017-05-26T02:08:17.855Z,11.8
2017-05-26T02:09:17.544Z,11.78
2017-05-26T02:10:17.537Z,11.75
2017-05-26T02:11:17.837Z,11.7
2017-05-26T02:12:17.829Z,11.75
2017-05-26T02:13:17.824Z,11.72
2017-05-26T02:14:17.820Z,11.67
2017-05-26T02:15:17.808Z,11.67
2017-05-26T02:16:17.805Z,11.61
2017-05-26T02:17:17.491Z,11.64
2017-05-26T02:18:17.787Z,11.54
2017-05-26T02:19:17.485Z,11.54
2017-05-26T02:20:17.773Z,11.49
2017-05-26T02:21:17.468Z,11.55
2017-05-26T02:22:17.762Z,11.52
2017-05-26T02:23:17.757Z,11.49
2017-05-26T02:24:17.751Z,11.55
2017-05-26T02:25:17.441Z,11.52
2017-05-26T02:26:17.732Z,11.44
2017-05-26T02:27:17.727Z,11.4
2017-05-26T02:28:17.720Z,11.42
2017-05-26T02:29:17.721Z,11.4
2017-05-26T02:30:17.710Z,11.39
2017-05-26T02:31:17.701Z,11.49
2017-05-26T02:32:17.694Z,11.36
2017-05-26T02:33:17.683Z,11.37
2017-05-26T02:34:17.376Z,11.4
2017-05-26T02:35:17.371Z,11.4
2017-05-26T02:36:17.663Z,11.36
2017-05-26T02:37:17.657Z,11.42
2017-05-26T02:38:17.653Z,11.35
2017-05-26T02:39:17.344Z,11.32
2017-05-26T02:40:17.334Z,11.36
2017-05-26T02:41:17.634Z,11.35
2017-05-26T02:42:17.625Z,11.37
2017-05-26T02:43:17.620Z,11.33
2017-05-26T02:44:17.308Z,11.25
2017-05-26T02:45:17.301Z,11.25
2017-05-26T02:46:17.297Z,11.25
2017-05-26T02:47:17.286Z,11.27
2017-05-26T02:48:17.587Z,11.33
2017-05-26T02:49:17.273Z,11.33
2017-05-26T02:50:17.271Z,11.29
2017-05-26T02:51:17.259Z,11.27
2017-05-26T02:52:17.555Z,11.24
2017-05-26T02:53:17.248Z,11.33
2017-05-26T02:54:17.240Z,11.27
2017-05-26T02:55:17.234Z,11.32
2017-05-26T02:56:17.227Z,11.33
2017-05-26T02:57:17.217Z,11.29
2017-05-26T02:58:17.209Z,11.33
2017-05-26T02:59:17.512Z,11.28
2017-05-26T03:00:17.198Z,11.29
2017-05-26T03:01:17.496Z,11.32
2017-05-26T03:02:17.186Z,11.27
2017-05-26T03:03:17.481Z,11.35
2017-05-26T03:04:17.470Z,11.27
2017-05-26T03:05:17.464Z,11.32
2017-05-26T03:06:17.457Z,11.28
2017-05-26T03:07:17.149Z,11.35
2017-05-26T03:08:17.452Z,11.4
2017-05-26T03:09:17.443Z,11.4
2017-05-26T03:10:17.430Z,11.35
2017-05-26T03:11:17.429Z,11.39
2017-05-26T03:12:17.417Z,11.36
2017-05-26T03:13:17.412Z,11.36
2017-05-26T03:14:17.101Z,11.39
2017-05-26T03:15:17.094Z,11.43
2017-05-26T03:16:17.420Z,11.46
2017-05-26T03:17:17.384Z,11.44
2017-05-26T03:18:17.380Z,11.4
2017-05-26T03:19:17.068Z,11.54
2017-05-26T03:20:17.062Z,11.51
2017-05-26T03:21:17.355Z,11.44
2017-05-26T03:22:17.354Z,11.61
2017-05-26T03:23:17.343Z,11.58
2017-05-26T03:24:17.334Z,11.58
2017-05-26T03:25:17.025Z,11.62
2017-05-26T03:26:17.018Z,11.67
2017-05-26T03:27:17.318Z,11.73
2017-05-26T03:28:17.007Z,11.7
2017-05-26T03:29:17.303Z,11.78
2017-05-26T03:30:16.994Z,11.76
2017-05-26T03:31:16.983Z,11.86
2017-05-26T03:32:17.280Z,11.8
2017-05-26T03:33:17.277Z,11.88
2017-05-26T03:34:17.271Z,11.95
2017-05-26T03:35:17.266Z,12.12
2017-05-26T03:36:17.254Z,12.17
2017-05-26T03:37:17.251Z,12.21
2017-05-26T03:38:17.246Z,12.5
2017-05-26T03:39:17.237Z,12.62
2017-05-26T03:40:16.925Z,12.77
2017-05-26T03:41:17.255Z,12.95
2017-05-26T03:42:16.611Z,13.12
2017-05-26T03:43:17.214Z,13.32
2017-05-26T03:44:16.906Z,13.57
2017-05-26T03:45:17.203Z,13.71
2017-05-26T03:46:16.893Z,14.07
2017-05-26T03:47:16.891Z,14.18
2017-05-26T03:48:16.583Z,14.4
2017-05-26T03:49:16.877Z,14.61
2017-05-26T03:50:16.872Z,14.78
2017-05-26T03:51:17.171Z,15.06
2017-05-26T03:52:16.864Z,15.2
2017-05-26T03:53:17.216Z,15.5
2017-05-26T03:54:16.857Z,15.75
2017-05-26T03:55:17.156Z,15.9
2017-05-26T03:56:16.849Z,16.28
2017-05-26T03:57:16.841Z,16.56
2017-05-26T03:58:16.838Z,16.78
2017-05-26T03:59:16.840Z,17.04
2017-05-26T04:00:17.147Z,17.22
2017-05-26T04:01:16.831Z,17.43
2017-05-26T04:02:16.828Z,17.74
2017-05-26T04:03:17.133Z,17.99
2017-05-26T04:04:16.826Z,18.21
2017-05-26T04:05:16.822Z,18.39
2017-05-26T04:06:16.818Z,18.67
2017-05-26T04:07:16.818Z,18.94
2017-05-26T04:08:17.122Z,19.13
2017-05-26T04:09:17.120Z,19.41
2017-05-26T04:10:17.118Z,19.63
2017-05-26T04:11:17.115Z,19.95
2017-05-26T04:12:17.117Z,20.1
2017-05-26T04:13:17.118Z,20.31
2017-05-26T04:14:17.114Z,20.67
2017-05-26T04:15:17.113Z,20.89
2017-05-26T04:16:17.113Z,21.07
2017-05-26T04:17:17.116Z,21.35
2017-05-26T04:18:17.119Z,21.65
2017-05-26T04:19:17.117Z,21.83
2017-05-26T04:20:17.116Z,22.03
2017-05-26T04:21:17.119Z,22.24
2017-05-26T04:22:17.117Z,22.36
2017-05-26T04:23:17.122Z,22.54
2017-05-26T04:24:16.825Z,22.75
2017-05-26T04:25:17.137Z,22.91
2017-05-26T04:26:17.129Z,23.04
2017-05-26T04:27:17.132Z,23.2
2017-05-26T04:28:17.135Z,23.38
2017-05-26T04:29:17.138Z,23.57
2017-05-26T04:30:17.140Z,23.79
2017-05-26T04:31:17.143Z,23.95
2017-05-26T04:32:16.845Z,24.2
2017-05-26T04:33:17.148Z,24.35
2017-05-26T04:34:17.153Z,24.52
2017-05-26T04:35:16.857Z,24.71
2017-05-26T04:36:16.861Z,24.84
2017-05-26T04:37:17.165Z,25.02
2017-05-26T04:38:17.172Z,25.18
2017-05-26T04:39:17.185Z,25.35
2017-05-26T04:40:17.183Z,25.55
2017-05-26T04:41:17.185Z,25.72
2017-05-26T04:42:17.200Z,25.82
2017-05-26T04:43:17.199Z,25.97
2017-05-26T04:44:17.203Z,26.18
2017-05-26T04:45:17.209Z,26.4
2017-05-26T04:46:16.914Z,26.6
2017-05-26T04:47:16.919Z,26.69
2017-05-26T04:48:16.924Z,26.85
2017-05-26T04:49:17.235Z,26.95
2017-05-26T04:50:17.249Z,27.06
2017-05-26T04:51:17.251Z,27.29
2017-05-26T04:52:16.949Z,27.6
2017-05-26T04:53:17.262Z,27.69
2017-05-26T04:54:17.271Z,27.97
2017-05-26T04:55:17.275Z,28.12
2017-05-26T04:56:17.284Z,28.29
2017-05-26T04:57:17.291Z,28.55
2017-05-26T04:58:16.998Z,28.68
2017-05-26T04:59:17.373Z,28.95
2017-05-26T05:00:17.319Z,29.02
2017-05-26T05:01:17.321Z,29.08
2017-05-26T05:02:17.030Z,29.24
2017-05-26T05:03:17.037Z,29.36
2017-05-26T05:04:16.744Z,29.43
2017-05-26T05:05:17.051Z,29.46
2017-05-26T05:06:17.066Z,29.68
2017-05-26T05:07:17.070Z,29.78
2017-05-26T05:08:16.775Z,29.89
2017-05-26T05:09:17.090Z,29.98
2017-05-26T05:10:17.096Z,30.04
2017-05-26T05:11:17.105Z,30.07
2017-05-26T05:12:17.116Z,30.1
2017-05-26T05:13:17.430Z,30.24
2017-05-26T05:14:17.136Z,30.29
2017-05-26T05:15:17.145Z,30.32
2017-05-26T05:16:17.156Z,30.39
2017-05-26T05:17:17.463Z,30.47
2017-05-26T05:18:17.179Z,30.58
2017-05-26T05:19:17.184Z,30.54
2017-05-26T05:20:17.192Z,30.47
2017-05-26T05:21:17.200Z,30.62
2017-05-26T05:22:17.210Z,30.61
2017-05-26T05:23:17.523Z,30.72
2017-05-26T05:24:17.228Z,30.58
2017-05-26T05:25:17.541Z,30.65
2017-05-26T05:26:17.248Z,30.62
2017-05-26T05:27:17.567Z,30.53
2017-05-26T05:28:17.569Z,30.47
2017-05-26T05:29:17.280Z,30.49
2017-05-26T05:30:17.287Z,30.65
2017-05-26T05:31:17.299Z,30.6
2017-05-26T05:32:17.611Z,30.61
2017-05-26T05:33:17.317Z,30.67
2017-05-26T05:34:17.329Z,30.75
2017-05-26T05:35:17.034Z,30.8
2017-05-26T05:36:17.648Z,30.72
2017-05-26T05:37:17.663Z,30.61
2017-05-26T05:38:17.062Z,30.54
2017-05-26T05:39:17.071Z,30.22
2017-05-26T05:40:17.686Z,30.05
2017-05-26T05:41:17.396Z,29.83
2017-05-26T05:42:17.958Z,29.39
2017-05-26T05:43:17.733Z,29.21
2017-05-26T05:44:17.725Z,29.08
2017-05-26T05:45:17.733Z,28.92
2017-05-26T05:46:17.441Z,29
2017-05-26T05:47:17.750Z,28.88
2017-05-26T05:48:17.762Z,28.68
2017-05-26T05:49:17.767Z,28.4
2017-05-26T05:50:17.772Z,28.31
2017-05-26T05:51:17.780Z,28.12
2017-05-26T05:52:17.493Z,27.87
2017-05-26T05:53:17.798Z,27.57
2017-05-26T05:54:17.805Z,27.32
2017-05-26T05:55:17.810Z,27.09
2017-05-26T05:56:17.514Z,27
2017-05-26T05:57:17.823Z,26.82
2017-05-26T05:58:17.532Z,26.58
2017-05-26T05:59:17.849Z,26.4
2017-05-26T06:00:17.240Z,26.05
2017-05-26T06:01:17.545Z,25.94
2017-05-26T06:02:17.249Z,25.62
2017-05-26T06:03:17.256Z,25.39
2017-05-26T06:04:17.881Z,25.02
2017-05-26T06:05:17.569Z,24.61
2017-05-26T06:06:17.577Z,24.22
2017-05-26T06:07:17.577Z,23.97
2017-05-26T06:08:17.279Z,23.69
2017-05-26T06:09:17.283Z,23.57
2017-05-26T06:10:17.590Z,23.4
2017-05-26T06:11:17.898Z,23.22
2017-05-26T06:12:17.901Z,23.22
2017-05-26T06:13:17.601Z,22.97
2017-05-26T06:14:17.605Z,22.94
2017-05-26T06:15:17.606Z,22.82
2017-05-26T06:16:17.607Z,22.61
2017-05-26T06:17:17.612Z,22.51
2017-05-26T06:18:17.617Z,22.33
2017-05-26T06:19:17.615Z,22.15
2017-05-26T06:20:17.624Z,22.12
2017-05-26T06:21:17.317Z,22.02
2017-05-26T06:22:17.627Z,21.91
2017-05-26T06:23:17.622Z,21.86
2017-05-26T06:24:17.624Z,21.75
2017-05-26T06:25:17.631Z,21.74
2017-05-26T06:26:17.326Z,21.72
2017-05-26T06:27:17.933Z,21.74
2017-05-26T06:28:17.632Z,21.62
2017-05-26T06:29:17.633Z,21.62
2017-05-26T06:30:17.639Z,21.54
2017-05-26T06:31:17.636Z,21.35
2017-05-26T06:32:17.939Z,21.28
2017-05-26T06:33:17.941Z,21.19
2017-05-26T06:34:17.646Z,21.24
2017-05-26T06:35:17.636Z,21.14
2017-05-26T06:36:17.940Z,21.14
2017-05-26T06:37:17.941Z,21.14
2017-05-26T06:38:17.943Z,21.12
2017-05-26T06:39:17.949Z,21.07
2017-05-26T06:40:17.945Z,21.03
2017-05-26T06:41:17.941Z,20.97
2017-05-26T06:42:17.333Z,20.98
2017-05-26T06:43:17.943Z,20.91
2017-05-26T06:44:18.011Z,20.8
2017-05-26T06:45:17.333Z,20.73
2017-05-26T06:46:17.637Z,20.55
2017-05-26T06:47:17.943Z,20.5
2017-05-26T06:48:17.638Z,20.38
2017-05-26T06:49:17.945Z,20.38
2017-05-26T06:50:17.638Z,20.41
2017-05-26T06:51:17.332Z,20.29
2017-05-26T06:52:17.338Z,20.33
2017-05-26T06:53:17.634Z,20.23
2017-05-26T06:54:17.639Z,20.21
2017-05-26T06:55:17.636Z,20.17
2017-05-26T06:56:17.937Z,20.11
2017-05-26T06:57:17.937Z,20.05
2017-05-26T06:58:17.938Z,20.08
2017-05-26T06:59:17.938Z,20.02
2017-05-26T07:00:17.937Z,19.95
2017-05-26T07:01:17.931Z,19.84
2017-05-26T07:02:17.932Z,19.78
2017-05-26T07:03:17.933Z,19.65
2017-05-26T07:04:17.931Z,19.71
2017-05-26T07:05:17.930Z,19.74
2017-05-26T07:06:17.928Z,19.66
2017-05-26T07:07:17.926Z,19.62
2017-05-26T07:08:17.924Z,19.51
2017-05-26T07:09:17.926Z,19.48
2017-05-26T07:10:17.922Z,19.41
2017-05-26T07:11:17.921Z,19.37
2017-05-26T07:12:17.919Z,19.37
2017-05-26T07:13:17.921Z,19.32
2017-05-26T07:14:17.920Z,19.29
2017-05-26T07:15:17.915Z,19.33
2017-05-26T07:16:17.912Z,19.23
2017-05-26T07:17:17.913Z,19.18
2017-05-26T07:18:17.913Z,19.02
2017-05-26T07:19:17.912Z,18.84
2017-05-26T07:20:17.912Z,18.81
2017-05-26T07:21:17.907Z,18.75
2017-05-26T07:22:17.905Z,18.65
2017-05-26T07:23:17.600Z,18.63
2017-05-26T07:24:17.903Z,18.66
2017-05-26T07:25:17.900Z,18.7
2017-05-26T07:26:17.901Z,18.73
2017-05-26T07:27:17.899Z,18.78
2017-05-26T07:28:17.905Z,18.84
2017-05-26T07:29:17.896Z,18.95
2017-05-26T07:31:17.890Z,18.95
2017-05-26T07:32:17.889Z,18.75
2017-05-26T07:35:17.882Z,18.76
2017-05-26T07:36:17.578Z,18.78
2017-05-26T07:37:17.884Z,18.76
2017-05-26T07:38:17.875Z,18.8
2017-05-26T07:39:17.877Z,18.76
2017-05-26T07:40:17.873Z,18.75
2017-05-26T07:41:17.568Z,18.67
2017-05-26T07:42:17.873Z,18.76
2017-05-26T07:43:17.872Z,18.8
2017-05-26T07:44:17.565Z,18.76
2017-05-26T07:45:17.863Z,18.82
2017-05-26T07:46:17.868Z,18.92
2017-05-26T07:47:17.862Z,18.91
2017-05-26T07:48:17.861Z,18.95
2017-05-26T07:49:17.555Z,19
2017-05-26T07:50:17.917Z,18.99
2017-05-26T07:51:17.551Z,19
2017-05-26T07:52:17.547Z,19.02
2017-05-26T07:53:17.849Z,19.07
2017-05-26T07:54:17.844Z,19
2017-05-26T07:55:17.543Z,19.16
2017-05-26T07:56:17.841Z,19.13
2017-05-26T07:57:17.841Z,19.29
2017-05-26T07:58:17.537Z,19.37
2017-05-26T07:59:17.232Z,19.37
2017-05-26T08:00:17.531Z,19.44
2017-05-26T08:01:17.531Z,19.46
2017-05-26T08:02:17.528Z,19.54
2017-05-26T08:03:17.528Z,19.48
2017-05-26T08:04:17.831Z,19.62
2017-05-26T08:05:18.175Z,19.69
2017-05-26T08:06:17.526Z,19.77
2017-05-26T08:07:17.824Z,19.74
2017-05-26T08:08:17.820Z,19.87
2017-05-26T08:09:17.823Z,19.77
2017-05-26T08:10:17.818Z,19.83
2017-05-26T08:11:17.817Z,19.73
2017-05-26T08:12:17.815Z,19.69
2017-05-26T08:13:17.815Z,19.76
2017-05-26T08:14:17.514Z,19.8
2017-05-26T08:15:17.812Z,19.76
2017-05-26T08:16:17.814Z,19.84
2017-05-26T08:17:17.805Z,19.91
2017-05-26T08:18:17.806Z,19.73
2017-05-26T08:19:17.809Z,19.8
2017-05-26T08:20:17.804Z,19.74
2017-05-26T08:21:17.804Z,19.73
2017-05-26T08:22:17.500Z,19.71
2017-05-26T08:23:17.806Z,19.76
2017-05-26T08:24:17.800Z,19.74
2017-05-26T08:25:17.796Z,19.62
2017-05-26T08:26:17.799Z,19.65
2017-05-26T08:27:17.800Z,19.5
2017-05-26T08:28:17.797Z,19.56
2017-05-26T08:29:17.793Z,19.62
2017-05-26T08:30:17.792Z,19.65
2017-05-26T08:31:17.788Z,19.71
2017-05-26T08:32:17.793Z,19.78
2017-05-26T08:33:17.789Z,19.69
2017-05-26T08:34:17.788Z,19.73
2017-05-26T08:35:17.482Z,19.68
2017-05-26T08:36:17.789Z,19.78
2017-05-26T08:37:17.479Z,19.78
2017-05-26T08:38:17.780Z,19.94
2017-05-26T08:39:17.777Z,19.88
2017-05-26T08:40:17.482Z,20.08
2017-05-26T08:41:17.778Z,20.13
2017-05-26T08:42:17.773Z,20.14
2017-05-26T08:43:17.772Z,20.23
2017-05-26T08:44:17.776Z,20.28
2017-05-26T08:45:17.162Z,20.35
2017-05-26T08:46:17.766Z,20.5
2017-05-26T08:47:17.768Z,20.62
2017-05-26T08:48:17.769Z,20.66
2017-05-26T08:49:17.767Z,20.59
2017-05-26T08:50:17.767Z,20.57
2017-05-26T08:51:17.461Z,20.54
2017-05-26T08:52:17.461Z,20.5
2017-05-26T08:53:17.461Z,20.38
2017-05-26T08:54:17.771Z,20.38
2017-05-26T08:55:17.762Z,20.35
2017-05-26T08:56:17.762Z,20.31
2017-05-26T08:57:17.454Z,20.28
2017-05-26T08:58:17.759Z,20.28
2017-05-26T08:59:17.758Z,20.35
2017-05-26T09:00:17.761Z,20.38
2017-05-26T09:01:17.758Z,20.39
2017-05-26T09:02:17.454Z,20.55
2017-05-26T09:03:17.758Z,20.61
2017-05-26T09:04:17.754Z,20.7
2017-05-26T09:05:17.753Z,20.79
2017-05-26T09:06:17.752Z,21.09
2017-05-26T09:07:17.754Z,21.16
2017-05-26T09:08:17.754Z,21.19
2017-05-26T09:09:17.749Z,21.21
2017-05-26T09:10:17.749Z,21.16
2017-05-26T09:11:17.752Z,21.17
2017-05-26T09:12:17.751Z,21.34
2017-05-26T09:13:17.750Z,21.35
2017-05-26T09:14:17.753Z,21.35
2017-05-26T09:15:17.748Z,21.34
2017-05-26T09:16:17.816Z,21.46
2017-05-26T09:17:17.747Z,21.53
2017-05-26T09:18:17.751Z,21.64
2017-05-26T09:19:17.748Z,21.64
2017-05-26T09:20:17.752Z,21.83
2017-05-26T09:21:17.448Z,21.86
2017-05-26T09:22:17.745Z,22.03
2017-05-26T09:23:17.750Z,22.09
2017-05-26T09:24:17.751Z,22.22
2017-05-26T09:25:17.750Z,22.28
2017-05-26T09:26:17.748Z,22.45
2017-05-26T09:27:17.752Z,22.67
2017-05-26T09:28:17.750Z,22.61
2017-05-26T09:29:17.752Z,22.77
2017-05-26T09:30:17.753Z,22.9
2017-05-26T09:31:17.752Z,22.91
2017-05-26T09:32:17.452Z,22.98
2017-05-26T09:33:17.754Z,23.04
2017-05-26T09:34:17.757Z,23.17
2017-05-26T09:35:17.756Z,23.19
2017-05-26T09:36:17.756Z,23.31
2017-05-26T09:37:17.760Z,23.36
2017-05-26T09:38:17.763Z,23.38
2017-05-26T09:39:17.763Z,23.42
2017-05-26T09:40:17.771Z,23.42
2017-05-26T09:41:17.159Z,23.5
2017-05-26T09:42:17.768Z,23.61
2017-05-26T09:43:17.771Z,23.63
2017-05-26T09:44:17.465Z,23.8
2017-05-26T09:45:17.773Z,23.78
2017-05-26T09:46:17.773Z,23.8
2017-05-26T09:47:17.476Z,23.78
2017-05-26T09:48:17.172Z,23.79
2017-05-26T09:49:17.781Z,23.91
2017-05-26T09:50:17.785Z,24.12
2017-05-26T09:51:17.482Z,24.06
2017-05-26T09:52:17.789Z,24.2
2017-05-26T09:53:17.787Z,24.31
2017-05-26T09:54:17.490Z,24.45
2017-05-26T09:55:17.793Z,24.57
2017-05-26T09:56:17.798Z,24.69
2017-05-26T09:57:17.803Z,24.88
2017-05-26T09:58:17.504Z,24.95
2017-05-26T09:59:17.807Z,25.13
2017-05-26T10:00:17.811Z,25.21
2017-05-26T10:01:17.812Z,25.38
2017-05-26T10:02:17.821Z,25.36
2017-05-26T10:03:17.841Z,25.42
2017-05-26T10:04:17.823Z,25.4
2017-05-26T10:05:17.832Z,25.46
2017-05-26T10:06:17.829Z,25.5
2017-05-26T10:07:17.833Z,25.58
2017-05-26T10:08:17.849Z,25.65
2017-05-26T10:09:17.535Z,25.73
2017-05-26T10:10:17.540Z,25.88
2017-05-26T10:11:17.548Z,25.83
2017-05-26T10:12:17.549Z,25.77
2017-05-26T10:13:17.552Z,25.9
2017-05-26T10:14:17.556Z,26.01
2017-05-26T10:15:17.869Z,26.12
2017-05-26T10:16:17.874Z,26.23
2017-05-26T10:17:17.910Z,26.37
2017-05-26T10:18:17.578Z,26.48
2017-05-26T10:19:17.885Z,26.54
2017-05-26T10:20:17.886Z,26.55
2017-05-26T10:21:17.589Z,26.54
2017-05-26T10:22:17.896Z,26.55
2017-05-26T10:23:17.905Z,26.29
2017-05-26T10:24:17.921Z,25.94
2017-05-26T10:25:17.912Z,25.76
2017-05-26T10:26:17.309Z,25.75
2017-05-26T10:27:17.922Z,25.77
2017-05-26T10:28:17.929Z,25.72
2017-05-26T10:29:17.629Z,25.75
2017-05-26T10:30:17.940Z,25.88
2017-05-26T10:31:17.942Z,25.95
2017-05-26T10:32:17.946Z,25.92
2017-05-26T10:33:17.952Z,25.98
2017-05-26T10:34:17.958Z,25.97
2017-05-26T10:35:17.961Z,25.91
2017-05-26T10:36:17.969Z,25.91
2017-05-26T10:37:17.975Z,25.76
2017-05-26T10:38:17.976Z,25.72
2017-05-26T10:39:18.000Z,25.6
2017-05-26T10:40:17.984Z,25.32
2017-05-26T10:41:17.992Z,25.35
2017-05-26T10:42:17.996Z,25.2
2017-05-26T10:43:18.007Z,25.38
2017-05-26T10:44:18.007Z,25.27
2017-05-26T10:45:18.006Z,25.27
2017-05-26T10:46:17.705Z,25.18
2017-05-26T10:47:17.709Z,25.18
2017-05-26T10:48:18.019Z,24.91
2017-05-26T10:49:18.024Z,24.81
2017-05-26T10:50:18.032Z,24.6
2017-05-26T10:51:18.029Z,24.46
2017-05-26T10:52:17.727Z,24.39
2017-05-26T10:53:18.037Z,24.27
2017-05-26T10:54:18.046Z,24.21
2017-05-26T10:55:18.049Z,24.3
2017-05-26T10:56:18.047Z,24.31
2017-05-26T10:57:18.045Z,24.22
2017-05-26T10:58:18.054Z,24.24
2017-05-26T10:59:17.752Z,24.22
2017-05-26T11:00:18.055Z,24.15
2017-05-26T11:01:18.059Z,24.13
2017-05-26T11:02:17.764Z,24.12
2017-05-26T11:03:18.069Z,24.12
2017-05-26T11:04:18.069Z,24.02
2017-05-26T11:05:18.075Z,23.73
2017-05-26T11:06:17.769Z,23.5
2017-05-26T11:07:18.075Z,23.43
2017-05-26T11:08:18.090Z,23.2
2017-05-26T11:09:17.779Z,23.25
2017-05-26T11:10:18.087Z,23.31
2017-05-26T11:11:17.782Z,23.38
2017-05-26T11:12:17.786Z,23.5
2017-05-26T11:13:18.090Z,23.5
2017-05-26T11:14:18.092Z,23.54
2017-05-26T11:15:18.093Z,23.53
2017-05-26T11:16:17.790Z,23.43
2017-05-26T11:17:17.794Z,23.31
2017-05-26T11:18:18.101Z,23.15
2017-05-26T11:19:18.105Z,23.19
2017-05-26T11:20:18.106Z,23.19
2017-05-26T11:21:18.110Z,23.25
2017-05-26T11:22:18.109Z,23.38
2017-05-26T11:23:18.111Z,23.5
2017-05-26T11:24:18.117Z,23.53
2017-05-26T11:25:17.814Z,23.68
2017-05-26T11:26:18.116Z,23.65
2017-05-26T11:27:18.120Z,23.7
2017-05-26T11:28:18.126Z,23.72
2017-05-26T11:29:17.829Z,23.69
2017-05-26T11:30:18.125Z,23.79
2017-05-26T11:31:18.125Z,23.78
2017-05-26T11:32:17.824Z,23.79
2017-05-26T11:33:18.133Z,23.85
2017-05-26T11:34:17.526Z,23.95
2017-05-26T11:35:18.134Z,24.09
2017-05-26T11:36:18.136Z,24.25
2017-05-26T11:37:18.140Z,24.4
2017-05-26T11:38:18.142Z,24.64
2017-05-26T11:39:18.146Z,24.8
2017-05-26T11:40:17.842Z,24.99
2017-05-26T11:41:17.851Z,25.1
2017-05-26T11:42:18.158Z,25.18
2017-05-26T11:43:17.849Z,25.32
2017-05-26T11:44:17.851Z,25.27
2017-05-26T11:45:18.159Z,25.2
2017-05-26T11:46:18.160Z,25.21
2017-05-26T11:47:18.160Z,25.17
2017-05-26T11:48:18.173Z,25.35
2017-05-26T11:49:17.563Z,25.2
2017-05-26T11:50:18.171Z,25.2
2017-05-26T11:51:17.872Z,25.33
2017-05-26T11:52:18.178Z,25.4
2017-05-26T11:53:18.182Z,25.33
2017-05-26T11:54:18.188Z,25.35
2017-05-26T11:55:18.185Z,25.46
2017-05-26T11:56:17.892Z,25.6
2017-05-26T11:57:18.194Z,25.6
2017-05-26T11:58:17.897Z,25.5
2017-05-26T11:59:17.895Z,25.3
2017-05-26T12:00:18.202Z,25.33
2017-05-26T12:01:18.205Z,25.35
2017-05-26T12:02:18.213Z,25.3
2017-05-26T12:03:18.215Z,25.35
2017-05-26T12:04:18.218Z,25.55
2017-05-26T12:05:18.223Z,25.61
2017-05-26T12:06:18.226Z,25.75
2017-05-26T12:07:17.924Z,26.01
2017-05-26T12:08:18.232Z,26.06
2017-05-26T12:09:17.932Z,26.06
2017-05-26T12:10:18.240Z,26.23
2017-05-26T12:11:18.241Z,26.29
2017-05-26T12:12:18.253Z,26.25
2017-05-26T12:13:18.254Z,26.23
2017-05-26T12:14:18.263Z,25.95
2017-05-26T12:15:18.259Z,25.7
2017-05-26T12:16:18.266Z,25.55
2017-05-26T12:17:18.266Z,25.51
2017-05-26T12:18:18.273Z,25.54
2017-05-26T12:19:18.275Z,25.55
2017-05-26T12:20:18.279Z,25.62
2017-05-26T12:21:18.288Z,25.75
2017-05-26T12:22:18.287Z,25.88
2017-05-26T12:23:18.294Z,25.97
2017-05-26T12:24:18.295Z,26.12
2017-05-26T12:25:18.301Z,26.23
2017-05-26T12:26:18.304Z,26.43
2017-05-26T12:27:18.307Z,26.6
2017-05-26T12:28:18.314Z,26.51
2017-05-26T12:29:18.315Z,26.43
2017-05-26T12:30:18.020Z,26.32
2017-05-26T12:31:18.022Z,26.23
2017-05-26T12:32:18.336Z,26.12
2017-05-26T12:33:18.336Z,26.09
2017-05-26T12:34:18.341Z,25.97
2017-05-26T12:35:18.343Z,25.85
2017-05-26T12:36:18.046Z,25.62
2017-05-26T12:37:18.055Z,25.52
2017-05-26T12:38:18.355Z,25.36
2017-05-26T12:39:18.360Z,25.27
2017-05-26T12:40:18.062Z,25.25
2017-05-26T12:41:18.065Z,25.17
2017-05-26T12:42:18.120Z,25.05
2017-05-26T12:43:18.378Z,24.99
2017-05-26T12:44:18.417Z,24.95
2017-05-26T12:45:18.080Z,24.84
2017-05-26T12:46:18.386Z,24.69
2017-05-26T12:47:18.389Z,24.73
2017-05-26T12:48:18.450Z,24.73
2017-05-26T12:49:18.401Z,24.73
2017-05-26T12:50:18.400Z,24.73
2017-05-26T12:51:18.099Z,24.84
2017-05-26T12:52:18.406Z,24.95
2017-05-26T12:53:18.108Z,25.08
2017-05-26T12:54:18.110Z,25.13
2017-05-26T12:55:18.415Z,25.18
2017-05-26T12:56:17.813Z,25.27
2017-05-26T12:57:18.422Z,25.51
2017-05-26T12:58:18.427Z,25.6